createdAt,value
2023-04-26T00:00:32.077Z,100.00
2023-04-26T00:03:00.241Z,100.00
2023-04-26T00:05:28.531Z,100.00
2023-04-26T00:07:55.373Z,100.00
2023-04-26T00:10:22.263Z,100.00
2023-04-26T00:12:49.003Z,100.00
2023-04-26T00:15:15.776Z,100.00
2023-04-26T00:17:43.018Z,100.00
2023-04-26T00:20:13.043Z,100.00
2023-04-26T00:22:40.112Z,100.00
2023-04-26T00:40:35.631Z,100.00
2023-04-26T00:43:03.455Z,100.00
2023-04-26T00:45:30.583Z,100.00
2023-04-26T00:47:57.364Z,100.00
2023-04-26T00:50:24.614Z,100.00
2023-04-26T00:52:51.781Z,100.00
2023-04-26T00:55:18.939Z,100.00
2023-04-26T00:57:46.220Z,100.00
2023-04-26T01:00:13.782Z,100.00
2023-04-26T01:02:41.623Z,100.00
2023-04-26T01:05:09.525Z,100.00
2023-04-26T01:07:37.576Z,100.00
2023-04-26T01:10:10.100Z,100.00
2023-04-26T01:12:38.466Z,100.00
2023-04-26T01:15:05.929Z,100.00
2023-04-26T01:17:32.778Z,100.00
2023-04-26T01:19:59.500Z,100.00
2023-04-26T01:22:26.449Z,100.00
2023-04-26T01:24:55.241Z,100.00
2023-04-26T01:27:22.200Z,100.00
2023-04-26T01:29:48.933Z,100.00
2023-04-26T01:32:15.896Z,100.00
2023-04-26T01:34:42.568Z,100.00
2023-04-26T01:37:09.309Z,100.00
2023-04-26T01:39:36.755Z,100.00
2023-04-26T01:42:04.881Z,100.00
2023-04-26T01:44:31.945Z,100.00
2023-04-26T01:46:58.739Z,100.00
2023-04-26T01:49:25.460Z,100.00
2023-04-26T01:51:52.309Z,100.00
2023-04-26T01:54:19.165Z,100.00
2023-04-26T01:56:46.002Z,100.00
2023-04-26T01:59:12.834Z,100.00
2023-04-26T02:01:42.461Z,100.00
2023-04-26T02:04:09.702Z,100.00
2023-04-26T02:06:37.998Z,100.00
2023-04-26T02:09:05.365Z,100.00
2023-04-26T02:11:32.184Z,100.00
2023-04-26T02:13:58.977Z,100.00
2023-04-26T02:16:27.242Z,100.00
2023-04-26T02:18:54.266Z,100.00
2023-04-26T02:21:22.215Z,100.00
2023-04-26T02:23:48.950Z,100.00
2023-04-26T02:26:15.799Z,100.00
2023-04-26T02:28:42.719Z,100.00
2023-04-26T02:31:09.553Z,100.00
2023-04-26T02:33:36.339Z,100.00
2023-04-26T02:36:06.659Z,100.00
2023-04-26T02:38:35.309Z,100.00
2023-04-26T02:41:04.139Z,100.00
2023-04-26T02:43:31.127Z,100.00
2023-04-26T02:46:00.569Z,100.00
2023-04-26T02:48:27.307Z,100.00
2023-04-26T02:50:54.118Z,100.00
2023-04-26T02:53:21.015Z,100.00
2023-04-26T02:55:47.737Z,100.00
2023-04-26T02:58:14.497Z,100.00
2023-04-26T03:00:47.338Z,100.00
2023-04-26T03:03:14.884Z,100.00
2023-04-26T03:05:41.929Z,100.00
2023-04-26T03:08:09.242Z,100.00
2023-04-26T03:10:36.137Z,100.00
2023-04-26T03:13:03.987Z,100.00
2023-04-26T03:15:30.791Z,100.00
2023-04-26T03:18:01.095Z,100.00
2023-04-26T03:20:27.942Z,100.00
2023-04-26T03:22:54.779Z,100.00
2023-04-26T03:25:21.580Z,100.00
2023-04-26T03:27:48.332Z,100.00
2023-04-26T03:30:15.597Z,100.00
2023-04-26T03:32:42.612Z,100.00
2023-04-26T03:35:10.490Z,100.00
2023-04-26T03:37:40.018Z,100.00
2023-04-26T03:40:10.095Z,100.00
2023-04-26T03:42:37.721Z,100.00
2023-04-26T03:45:05.169Z,100.00
2023-04-26T03:47:32.052Z,100.00
2023-04-26T03:50:00.141Z,100.00
2023-04-26T03:52:26.949Z,100.00
2023-04-26T03:54:53.718Z,100.00
2023-04-26T03:57:21.704Z,100.00
2023-04-26T03:59:48.423Z,100.00
2023-04-26T04:02:17.294Z,100.00
2023-04-26T04:04:44.324Z,100.00
2023-04-26T04:07:11.458Z,100.00
2023-04-26T04:09:38.157Z,100.00
2023-04-26T04:12:05.034Z,100.00
2023-04-26T04:14:32.814Z,100.00
2023-04-26T04:16:59.829Z,100.00
2023-04-26T04:19:35.604Z,100.00
2023-04-26T04:22:02.313Z,100.00
2023-04-26T04:24:29.788Z,100.00
2023-04-26T04:26:56.486Z,100.00
2023-04-26T04:29:23.380Z,100.00
2023-04-26T04:31:50.054Z,100.00
2023-04-26T04:34:16.700Z,100.00
2023-04-26T04:36:43.453Z,100.00
2023-04-26T04:39:13.864Z,100.00
2023-04-26T04:41:47.603Z,100.00
2023-04-26T04:44:16.369Z,100.00
2023-04-26T04:46:43.747Z,100.00
2023-04-26T04:49:12.671Z,100.00
2023-04-26T04:51:39.735Z,100.00
2023-04-26T04:54:18.233Z,100.00
2023-04-26T04:56:45.391Z,100.00
2023-04-26T04:59:12.165Z,100.00
2023-04-26T05:01:38.941Z,100.00
2023-04-26T05:04:07.002Z,100.00
2023-04-26T05:06:34.071Z,100.00
2023-04-26T05:09:01.637Z,100.00
2023-04-26T05:11:28.524Z,100.00
2023-04-26T05:13:55.489Z,100.00
2023-04-26T05:16:22.587Z,100.00
2023-04-26T05:18:49.434Z,100.00
2023-04-26T05:21:16.521Z,100.00
2023-04-26T05:23:43.326Z,100.00
2023-04-26T05:26:16.786Z,100.00
2023-04-26T05:28:43.593Z,100.00
2023-04-26T05:31:11.592Z,100.00
2023-04-26T05:33:38.638Z,100.00
2023-04-26T05:36:05.878Z,100.00
2023-04-26T05:38:32.558Z,100.00
2023-04-26T05:40:59.301Z,100.00
2023-04-26T05:43:26.560Z,100.00
2023-04-26T05:45:54.488Z,100.00
2023-04-26T05:48:22.333Z,100.00
2023-04-26T05:50:50.162Z,100.00
2023-04-26T05:53:17.161Z,100.00
2023-04-26T05:55:43.957Z,100.00
2023-04-26T05:58:10.929Z,100.00
2023-04-26T06:00:38.853Z,100.00
2023-04-26T06:03:06.213Z,100.00
2023-04-26T06:05:33.329Z,100.00
2023-04-26T06:08:01.614Z,100.00
2023-04-26T06:10:28.411Z,100.00
2023-04-26T06:12:55.130Z,100.00
2023-04-26T06:15:22.084Z,100.00
2023-04-26T06:17:48.841Z,100.00
2023-04-26T06:20:16.390Z,100.00
2023-04-26T06:22:43.372Z,100.00
2023-04-26T06:25:10.156Z,100.00
2023-04-26T06:27:36.894Z,100.00
2023-04-26T06:30:03.857Z,100.00
2023-04-26T06:32:30.613Z,100.00
2023-04-26T06:34:57.329Z,100.00
2023-04-26T06:37:24.010Z,100.00
2023-04-26T06:39:50.845Z,100.00
2023-04-26T06:42:18.019Z,100.00
2023-04-26T06:44:44.762Z,100.00
2023-04-26T06:47:11.634Z,100.00
2023-04-26T06:49:38.438Z,100.00
2023-04-26T06:52:08.632Z,100.00
2023-04-26T06:54:39.827Z,100.00
2023-04-26T06:57:09.494Z,100.00
2023-04-26T06:59:36.718Z,100.00
2023-04-26T07:02:03.529Z,100.00
2023-04-26T07:04:30.431Z,100.00
2023-04-26T07:06:57.947Z,100.00
2023-04-26T07:09:24.699Z,100.00
2023-04-26T07:11:51.466Z,100.00
2023-04-26T07:14:18.223Z,100.00
2023-04-26T07:16:45.243Z,100.00
2023-04-26T07:19:11.970Z,100.00
2023-04-26T07:21:38.749Z,100.00
2023-04-26T07:24:06.432Z,100.00
2023-04-26T07:26:33.223Z,100.00
2023-04-26T07:29:01.130Z,100.00
2023-04-26T07:31:27.877Z,100.00
2023-04-26T07:33:55.009Z,100.00
2023-04-26T07:36:23.846Z,100.00
2023-04-26T07:38:52.142Z,100.00
2023-04-26T07:41:18.903Z,100.00
2023-04-26T07:43:45.629Z,100.00
2023-04-26T07:46:12.504Z,100.00
2023-04-26T07:48:39.270Z,100.00
2023-04-26T07:51:11.460Z,100.00
2023-04-26T07:53:39.204Z,100.00
2023-04-26T07:56:09.882Z,100.00
2023-04-26T07:58:39.353Z,100.00
2023-04-26T08:01:06.336Z,100.00
2023-04-26T08:03:33.465Z,100.00
2023-04-26T08:06:00.834Z,100.00
2023-04-26T08:08:28.150Z,100.00
2023-04-26T08:10:55.846Z,100.00
2023-04-26T08:13:23.002Z,100.00
2023-04-26T08:15:49.776Z,100.00
2023-04-26T08:18:16.672Z,100.00
2023-04-26T08:20:43.834Z,100.00
2023-04-26T08:23:10.890Z,100.00
2023-04-26T08:25:37.696Z,100.00
2023-04-26T08:28:05.249Z,100.00
2023-04-26T08:30:32.194Z,100.00
2023-04-26T08:32:58.856Z,100.00
2023-04-26T08:35:25.798Z,100.00
2023-04-26T08:37:52.623Z,100.00
2023-04-26T08:40:27.152Z,100.00
2023-04-26T08:42:54.080Z,100.00
2023-04-26T08:45:21.765Z,100.00
2023-04-26T08:47:51.237Z,100.00
2023-04-26T08:50:22.901Z,100.00
2023-04-26T08:52:51.587Z,100.00
2023-04-26T08:55:20.401Z,100.00
2023-04-26T08:57:49.314Z,100.00
2023-04-26T09:00:20.532Z,100.00
2023-04-26T09:02:50.076Z,100.00
2023-04-26T09:05:17.227Z,100.00
2023-04-26T09:07:47.676Z,100.00
2023-04-26T09:10:19.554Z,100.00
2023-04-26T09:12:46.435Z,100.00
2023-04-26T09:15:14.778Z,100.00
2023-04-26T09:17:42.113Z,100.00
2023-04-26T09:20:24.565Z,100.00
2023-04-26T09:23:04.009Z,100.00
2023-04-26T09:25:32.014Z,100.00
2023-04-26T09:27:59.707Z,100.00
2023-04-26T09:30:27.468Z,100.00
2023-04-26T09:33:04.109Z,100.00
2023-04-26T09:35:34.626Z,100.00
2023-04-26T09:38:09.617Z,100.00
2023-04-26T09:40:45.486Z,100.00
2023-04-26T09:43:19.798Z,100.00
2023-04-26T09:45:58.023Z,100.00
2023-04-26T09:48:27.003Z,100.00
2023-04-26T09:50:55.434Z,100.00
2023-04-26T09:53:31.227Z,100.00
2023-04-26T09:56:09.892Z,100.00
2023-04-26T09:58:38.307Z,100.00
2023-04-26T10:01:06.996Z,100.00
2023-04-26T10:03:37.951Z,100.00
2023-04-26T10:06:05.916Z,100.00
2023-04-26T10:08:33.510Z,100.00
2023-04-26T10:11:02.336Z,100.00
2023-04-26T10:13:29.542Z,100.00
2023-04-26T10:15:56.689Z,100.00
2023-04-26T10:18:23.462Z,100.00
2023-04-26T10:20:53.208Z,100.00
2023-04-26T10:23:21.481Z,100.00
2023-04-26T10:25:48.853Z,100.00
2023-04-26T10:28:16.339Z,100.00
2023-04-26T10:30:57.411Z,100.00
2023-04-26T10:33:25.307Z,100.00
2023-04-26T10:36:14.392Z,100.00
2023-04-26T10:39:22.003Z,100.00
2023-04-26T10:41:49.018Z,100.00
2023-04-26T10:44:38.086Z,100.00
2023-04-26T10:47:06.767Z,100.00
2023-04-26T10:49:48.235Z,100.00
2023-04-26T10:52:16.979Z,100.00
2023-04-26T10:54:56.490Z,100.00
2023-04-26T10:57:25.020Z,100.00
2023-04-26T11:00:17.176Z,100.00
2023-04-26T11:02:52.507Z,100.00
2023-04-26T11:05:58.123Z,100.00
2023-04-26T11:08:35.743Z,100.00
2023-04-26T11:11:02.391Z,100.00
2023-04-26T11:13:42.551Z,100.00
2023-04-26T11:16:13.791Z,100.00
2023-04-26T11:18:42.651Z,100.00
2023-04-26T11:21:09.864Z,100.00
2023-04-26T11:23:36.798Z,100.00
2023-04-26T11:26:05.695Z,100.00
2023-04-26T11:28:34.514Z,100.00
2023-04-26T11:31:02.117Z,100.00
2023-04-26T11:33:29.005Z,100.00
2023-04-26T11:35:57.212Z,100.00
2023-04-26T11:38:28.534Z,100.00
2023-04-26T11:41:00.434Z,100.00
2023-04-26T11:43:34.570Z,100.00
2023-04-26T11:46:02.069Z,100.00
2023-04-26T11:48:30.279Z,100.00
2023-04-26T11:50:59.106Z,100.00
2023-04-26T11:53:26.368Z,100.00
2023-04-26T11:55:53.308Z,100.00
2023-04-26T11:58:20.445Z,100.00
2023-04-26T12:01:01.996Z,100.00
2023-04-26T12:03:37.931Z,100.00
2023-04-26T12:06:05.180Z,100.00
2023-04-26T12:08:33.485Z,100.00
2023-04-26T12:11:04.023Z,100.00
2023-04-26T12:13:30.933Z,100.00
2023-04-26T12:15:57.856Z,100.00
2023-04-26T12:18:31.190Z,100.00
2023-04-26T12:20:59.803Z,100.00
2023-04-26T12:23:26.786Z,100.00
2023-04-26T12:26:00.588Z,100.00
2023-04-26T12:28:30.399Z,100.00
2023-04-26T12:30:58.548Z,100.00
2023-04-26T12:33:29.129Z,100.00
2023-04-26T12:35:58.222Z,100.00
2023-04-26T12:41:47.952Z,100.00
2023-04-26T12:44:16.549Z,100.00
2023-04-26T12:46:45.434Z,100.00
2023-04-26T12:49:15.403Z,100.00
2023-04-26T12:51:44.383Z,96.56
2023-04-26T12:54:11.944Z,94.84
2023-04-26T12:56:45.810Z,93.65
2023-04-26T12:59:12.756Z,97.48
2023-04-26T13:01:39.734Z,96.10
2023-04-26T13:04:07.033Z,100.00
2023-04-26T13:06:34.478Z,95.81
2023-04-26T13:09:01.952Z,96.55
2023-04-26T13:11:28.855Z,100.00
2023-04-26T13:13:55.647Z,100.00
2023-04-26T13:16:22.559Z,95.93
2023-04-26T13:18:49.339Z,99.72
2023-04-26T13:21:16.075Z,96.13
2023-04-26T13:23:42.992Z,99.87
2023-04-26T13:26:09.779Z,100.00
2023-04-26T13:28:36.938Z,100.00
2023-04-26T13:31:03.787Z,100.00
2023-04-26T13:33:30.777Z,100.00
2023-04-26T13:35:57.515Z,100.00
2023-04-26T13:38:24.483Z,97.65
2023-04-26T13:40:52.271Z,99.94
2023-04-26T13:43:19.151Z,100.00
2023-04-26T13:45:45.999Z,97.91
2023-04-26T13:48:13.202Z,100.00
2023-04-26T13:50:40.124Z,100.00
2023-04-26T13:53:07.108Z,100.00
2023-04-26T13:55:33.870Z,100.00
2023-04-26T13:58:01.015Z,100.00
2023-04-26T14:00:28.402Z,100.00
2023-04-26T14:02:55.313Z,100.00
2023-04-26T14:05:23.868Z,100.00
2023-04-26T14:07:52.960Z,100.00
2023-04-26T14:10:21.083Z,100.00
2023-04-26T14:12:47.855Z,100.00
2023-04-26T14:15:15.231Z,100.00
2023-04-26T14:17:42.268Z,100.00
2023-04-26T14:20:10.582Z,99.98
2023-04-26T14:22:37.596Z,100.00
2023-04-26T14:25:04.776Z,100.00
2023-04-26T14:27:31.860Z,100.00
2023-04-26T14:29:58.562Z,96.65
2023-04-26T14:32:25.430Z,100.00
2023-04-26T14:34:52.153Z,94.28
2023-04-26T14:37:22.803Z,92.32
2023-04-26T14:39:50.788Z,90.34
2023-04-26T14:42:17.756Z,94.58
2023-04-26T14:44:46.544Z,92.22
2023-04-26T14:47:13.531Z,93.34
2023-04-26T14:49:40.321Z,95.58
2023-04-26T14:52:07.117Z,96.75
2023-04-26T14:54:42.751Z,92.56
2023-04-26T14:57:10.546Z,94.41
2023-04-26T14:59:37.454Z,96.12
2023-04-26T15:02:05.048Z,92.67
2023-04-26T15:04:32.386Z,96.18
2023-04-26T15:06:59.270Z,96.88
2023-04-26T15:09:26.491Z,100.00
2023-04-26T15:11:54.388Z,100.00
2023-04-26T15:14:21.255Z,100.00
2023-04-26T15:16:48.292Z,100.00
2023-04-26T15:19:15.137Z,100.00
2023-04-26T15:21:42.533Z,95.21
2023-04-26T15:24:09.339Z,95.08
2023-04-26T15:26:36.128Z,93.24
2023-04-26T15:29:02.836Z,92.17
2023-04-26T15:31:29.661Z,92.98
2023-04-26T15:33:59.600Z,92.65
2023-04-26T15:36:26.434Z,98.13
2023-04-26T15:38:53.313Z,92.81
2023-04-26T15:41:20.384Z,96.96
2023-04-26T15:43:47.140Z,100.00
2023-04-26T15:46:15.154Z,98.37
2023-04-26T15:48:41.971Z,97.11
2023-04-26T15:51:08.715Z,98.58
2023-04-26T15:53:37.578Z,93.21
2023-04-26T15:56:18.295Z,90.74
2023-04-26T15:58:48.613Z,95.23
2023-04-26T16:01:15.525Z,97.17
2023-04-26T16:03:45.722Z,90.39
2023-04-26T16:06:14.349Z,98.19
2023-04-26T16:08:41.472Z,94.86
2023-04-26T16:11:08.319Z,98.59
2023-04-26T16:13:35.140Z,100.00
2023-04-26T16:16:01.899Z,97.05
2023-04-26T16:18:28.686Z,99.14
2023-04-26T16:21:03.727Z,100.00
2023-04-26T16:23:31.600Z,100.00
2023-04-26T16:25:58.417Z,99.77
2023-04-26T16:28:25.129Z,99.01
2023-04-26T16:30:51.900Z,100.00
2023-04-26T16:33:21.196Z,100.00
2023-04-26T16:35:52.919Z,100.00
2023-04-26T16:38:19.956Z,100.00
2023-04-26T16:40:59.630Z,100.00
2023-04-26T16:43:30.185Z,100.00
2023-04-26T16:46:01.531Z,100.00
2023-04-26T16:48:30.633Z,100.00
2023-04-26T16:50:57.391Z,100.00
2023-04-26T16:53:24.116Z,100.00
2023-04-26T16:55:51.324Z,100.00
2023-04-26T16:58:18.225Z,100.00
2023-04-26T17:00:45.575Z,100.00
2023-04-26T17:03:12.675Z,100.00
2023-04-26T17:05:40.923Z,100.00
2023-04-26T17:08:07.962Z,100.00
2023-04-26T17:10:36.669Z,100.00
2023-04-26T17:13:04.710Z,100.00
2023-04-26T17:15:33.789Z,100.00
2023-04-26T17:18:01.690Z,100.00
2023-04-26T17:20:29.165Z,100.00
2023-04-26T17:22:56.972Z,100.00
2023-04-26T17:25:24.822Z,100.00
2023-04-26T17:27:52.572Z,100.00
2023-04-26T17:30:20.221Z,100.00
2023-04-26T17:32:46.971Z,100.00
2023-04-26T17:35:13.987Z,100.00
2023-04-26T17:37:42.132Z,100.00
2023-04-26T17:40:10.147Z,100.00
2023-04-26T17:42:36.857Z,100.00
2023-04-26T17:45:05.429Z,100.00
2023-04-26T17:47:32.268Z,100.00
2023-04-26T17:49:59.479Z,100.00
2023-04-26T17:52:26.939Z,100.00
2023-04-26T17:54:54.714Z,100.00
2023-04-26T17:57:23.835Z,100.00
2023-04-26T17:59:52.169Z,100.00
2023-04-26T18:02:19.508Z,100.00
2023-04-26T18:04:49.671Z,100.00
2023-04-26T18:07:16.838Z,100.00
2023-04-26T18:09:43.697Z,100.00
2023-04-26T18:12:10.773Z,100.00
2023-04-26T18:14:44.390Z,100.00
2023-04-26T18:17:15.360Z,100.00
2023-04-26T18:19:42.667Z,100.00
2023-04-26T18:22:09.627Z,100.00
2023-04-26T18:24:36.703Z,100.00
2023-04-26T18:27:03.660Z,100.00
2023-04-26T18:29:30.619Z,100.00
2023-04-26T18:31:57.508Z,100.00
2023-04-26T18:34:24.539Z,100.00
2023-04-26T18:36:51.588Z,100.00
2023-04-26T18:39:18.512Z,100.00
2023-04-26T18:41:45.579Z,100.00
2023-04-26T18:44:15.439Z,100.00
2023-04-26T18:46:43.220Z,100.00
2023-04-26T18:49:10.240Z,100.00
2023-04-26T18:51:37.212Z,100.00
2023-04-26T18:54:04.114Z,100.00
2023-04-26T18:56:31.590Z,100.00
2023-04-26T18:58:58.371Z,100.00
2023-04-26T19:01:25.151Z,100.00
2023-04-26T19:03:52.160Z,100.00
2023-04-26T19:06:19.134Z,100.00
2023-04-26T19:08:45.873Z,100.00
2023-04-26T19:11:12.943Z,100.00
2023-04-26T19:13:40.401Z,100.00
2023-04-26T19:16:07.971Z,100.00
2023-04-26T19:18:37.287Z,100.00
2023-04-26T19:21:08.130Z,100.00
2023-04-26T19:23:35.505Z,100.00
2023-04-26T19:26:04.438Z,100.00
2023-04-26T19:28:31.497Z,100.00
2023-04-26T19:30:58.759Z,100.00
2023-04-26T19:33:25.759Z,100.00
2023-04-26T19:35:52.525Z,100.00
2023-04-26T19:38:19.604Z,100.00
2023-04-26T19:40:46.395Z,100.00
2023-04-26T19:43:13.211Z,100.00
2023-04-26T19:45:41.165Z,100.00
2023-04-26T19:48:11.146Z,100.00
2023-04-26T19:50:41.812Z,100.00
2023-04-26T19:53:09.914Z,100.00
2023-04-26T19:55:38.059Z,100.00
2023-04-26T19:58:05.510Z,100.00
2023-04-26T20:00:35.665Z,100.00
2023-04-26T20:03:03.114Z,100.00
2023-04-26T20:05:30.192Z,100.00
2023-04-26T20:07:57.572Z,100.00
2023-04-26T20:10:24.360Z,100.00
2023-04-26T20:12:51.961Z,100.00
2023-04-26T20:15:19.301Z,100.00
2023-04-26T20:17:46.240Z,100.00
2023-04-26T20:20:13.320Z,100.00
2023-04-26T20:22:40.553Z,100.00
2023-04-26T20:25:07.905Z,100.00
2023-04-26T20:27:34.646Z,100.00
2023-04-26T20:30:01.436Z,100.00
2023-04-26T20:32:28.274Z,100.00
2023-04-26T20:34:55.280Z,100.00
2023-04-26T20:37:22.093Z,100.00
2023-04-26T20:39:49.126Z,100.00
2023-04-26T20:42:16.235Z,100.00
2023-04-26T20:44:43.307Z,100.00
2023-04-26T20:47:10.092Z,100.00
2023-04-26T20:49:36.804Z,100.00
2023-04-26T20:52:03.781Z,100.00
2023-04-26T20:54:30.501Z,100.00
2023-04-26T20:56:57.283Z,100.00
2023-04-26T20:59:25.143Z,100.00
2023-04-26T21:01:53.240Z,100.00
2023-04-26T21:04:20.168Z,100.00
2023-04-26T21:06:47.407Z,100.00
2023-04-26T21:09:14.137Z,100.00
2023-04-26T21:11:40.909Z,100.00
2023-04-26T21:14:07.555Z,100.00
2023-04-26T21:16:34.127Z,100.00
2023-04-26T21:19:00.808Z,100.00
2023-04-26T21:21:28.713Z,100.00
2023-04-26T21:23:55.624Z,100.00
2023-04-26T21:26:22.279Z,100.00
2023-04-26T21:28:48.876Z,100.00
2023-04-26T21:31:15.863Z,100.00
2023-04-26T21:33:42.548Z,100.00
2023-04-26T21:36:09.383Z,100.00
2023-04-26T21:38:36.049Z,100.00
2023-04-26T21:41:02.660Z,100.00
2023-04-26T21:43:29.321Z,100.00
2023-04-26T21:45:57.846Z,100.00
2023-04-26T21:48:26.196Z,100.00
2023-04-26T21:50:53.025Z,100.00
2023-04-26T21:53:19.760Z,100.00
2023-04-26T21:55:53.077Z,100.00
2023-04-26T21:58:20.750Z,100.00
2023-04-26T22:00:47.663Z,100.00
2023-04-26T22:03:14.744Z,100.00
2023-04-26T22:05:41.699Z,100.00
2023-04-26T22:08:08.338Z,100.00
2023-04-26T22:10:35.597Z,100.00
2023-04-26T22:13:02.628Z,100.00
2023-04-26T22:15:29.448Z,100.00
2023-04-26T22:17:56.213Z,100.00
2023-04-26T22:20:23.130Z,100.00
2023-04-26T22:22:49.762Z,100.00
2023-04-26T22:25:16.446Z,100.00
2023-04-26T22:27:43.143Z,100.00
2023-04-26T22:30:23.795Z,100.00
2023-04-26T22:32:53.792Z,100.00
2023-04-26T22:35:20.910Z,100.00
2023-04-26T22:37:47.946Z,100.00
2023-04-26T22:40:15.237Z,100.00
2023-04-26T22:42:42.766Z,100.00
2023-04-26T22:45:10.787Z,100.00
2023-04-26T22:47:37.575Z,100.00
2023-04-26T22:50:04.896Z,100.00
2023-04-26T22:52:32.224Z,100.00
2023-04-26T22:55:00.009Z,100.00
2023-04-26T22:57:27.102Z,100.00
2023-04-26T22:59:53.665Z,100.00
2023-04-26T23:02:21.009Z,100.00
2023-04-26T23:04:47.909Z,100.00
2023-04-26T23:07:14.686Z,100.00
2023-04-26T23:09:41.623Z,100.00
2023-04-26T23:12:08.429Z,100.00
2023-04-26T23:14:35.346Z,100.00
2023-04-26T23:17:02.973Z,100.00
2023-04-26T23:19:29.819Z,100.00
2023-04-26T23:21:56.577Z,100.00
2023-04-26T23:24:23.348Z,100.00
2023-04-26T23:26:50.200Z,100.00
2023-04-26T23:29:16.881Z,100.00
2023-04-26T23:31:43.888Z,100.00
2023-04-26T23:34:10.684Z,100.00
2023-04-26T23:36:37.460Z,100.00
2023-04-26T23:39:04.144Z,100.00
2023-04-26T23:41:31.225Z,100.00
2023-04-26T23:43:58.048Z,100.00
2023-04-26T23:46:24.884Z,100.00
2023-04-26T23:48:51.565Z,100.00
2023-04-26T23:51:18.305Z,100.00
2023-04-26T23:53:45.035Z,100.00
2023-04-26T23:56:11.808Z,100.00
2023-04-26T23:58:38.604Z,100.00
